sensor_id;sensor_type;location;lat;lon;timestamp;P1;durP1;ratioP1;P2;durP2;ratioP2
16731;SDS011;8484;50.904;9.192;2022-08-03T00:02:11;3.40;;;0.90;;
16731;SDS011;8484;50.904;9.192;2022-08-03T00:04:38;0.80;;;0.80;;
16731;SDS011;8484;50.904;9.192;2022-08-03T00:07:05;1.57;;;0.90;;
16731;SDS011;8484;50.904;9.192;2022-08-03T00:09:32;6.27;;;0.90;;
16731;SDS011;8484;50.904;9.192;2022-08-03T00:11:59;1.57;;;1.00;;
16731;SDS011;8484;50.904;9.192;2022-08-03T00:14:26;3.27;;;0.90;;
16731;SDS011;8484;50.904;9.192;2022-08-03T00:16:53;1.10;;;0.83;;
16731;SDS011;8484;50.904;9.192;2022-08-03T00:19:21;5.17;;;1.13;;
16731;SDS011;8484;50.904;9.192;2022-08-03T00:21:48;2.90;;;1.27;;
16731;SDS011;8484;50.904;9.192;2022-08-03T00:24:14;2.83;;;1.20;;
16731;SDS011;8484;50.904;9.192;2022-08-03T00:26:41;2.57;;;1.00;;
16731;SDS011;8484;50.904;9.192;2022-08-03T00:29:08;3.57;;;1.07;;
16731;SDS011;8484;50.904;9.192;2022-08-03T00:31:35;3.30;;;1.10;;
16731;SDS011;8484;50.904;9.192;2022-08-03T00:34:02;1.63;;;1.00;;
16731;SDS011;8484;50.904;9.192;2022-08-03T00:36:30;2.27;;;1.53;;
16731;SDS011;8484;50.904;9.192;2022-08-03T00:38:57;4.40;;;1.00;;
16731;SDS011;8484;50.904;9.192;2022-08-03T00:41:24;0.90;;;0.90;;
16731;SDS011;8484;50.904;9.192;2022-08-03T00:43:51;1.73;;;1.10;;
16731;SDS011;8484;50.904;9.192;2022-08-03T00:46:17;1.77;;;1.20;;
16731;SDS011;8484;50.904;9.192;2022-08-03T00:48:46;2.60;;;0.90;;
16731;SDS011;8484;50.904;9.192;2022-08-03T00:51:13;0.90;;;0.90;;
16731;SDS011;8484;50.904;9.192;2022-08-03T00:53:41;1.70;;;1.17;;
16731;SDS011;8484;50.904;9.192;2022-08-03T00:56:11;1.73;;;1.00;;
16731;SDS011;8484;50.904;9.192;2022-08-03T00:58:39;0.90;;;0.90;;
16731;SDS011;8484;50.904;9.192;2022-08-03T01:01:06;1.17;;;0.67;;
16731;SDS011;8484;50.904;9.192;2022-08-03T01:03:32;0.80;;;0.73;;
16731;SDS011;8484;50.904;9.192;2022-08-03T01:06:03;3.27;;;0.80;;
16731;SDS011;8484;50.904;9.192;2022-08-03T01:08:37;1.10;;;1.00;;
16731;SDS011;8484;50.904;9.192;2022-08-03T01:11:14;5.03;;;1.10;;
16731;SDS011;8484;50.904;9.192;2022-08-03T01:13:50;1.27;;;1.07;;
16731;SDS011;8484;50.904;9.192;2022-08-03T01:16:26;2.10;;;0.90;;
16731;SDS011;8484;50.904;9.192;2022-08-03T01:18:57;2.27;;;0.97;;
16731;SDS011;8484;50.904;9.192;2022-08-03T01:21:33;1.27;;;0.80;;
16731;SDS011;8484;50.904;9.192;2022-08-03T01:24:10;4.07;;;1.00;;
16731;SDS011;8484;50.904;9.192;2022-08-03T01:26:52;2.73;;;1.30;;
16731;SDS011;8484;50.904;9.192;2022-08-03T01:29:35;1.00;;;0.90;;
16731;SDS011;8484;50.904;9.192;2022-08-03T01:32:17;0.90;;;0.80;;
16731;SDS011;8484;50.904;9.192;2022-08-03T01:34:47;2.83;;;0.70;;
16731;SDS011;8484;50.904;9.192;2022-08-03T01:37:20;3.43;;;1.00;;
16731;SDS011;8484;50.904;9.192;2022-08-03T01:39:52;1.90;;;0.80;;
16731;SDS011;8484;50.904;9.192;2022-08-03T01:42:23;3.33;;;0.90;;
16731;SDS011;8484;50.904;9.192;2022-08-03T01:44:52;1.30;;;0.80;;
16731;SDS011;8484;50.904;9.192;2022-08-03T01:47:22;1.53;;;0.80;;
16731;SDS011;8484;50.904;9.192;2022-08-03T01:49:51;1.97;;;0.97;;
16731;SDS011;8484;50.904;9.192;2022-08-03T01:52:21;4.43;;;1.27;;
16731;SDS011;8484;50.904;9.192;2022-08-03T01:54:50;1.27;;;1.00;;
16731;SDS011;8484;50.904;9.192;2022-08-03T01:57:18;3.37;;;1.00;;
16731;SDS011;8484;50.904;9.192;2022-08-03T01:59:48;1.53;;;0.90;;
16731;SDS011;8484;50.904;9.192;2022-08-03T02:02:18;1.47;;;1.00;;
16731;SDS011;8484;50.904;9.192;2022-08-03T02:04:46;4.20;;;1.00;;
16731;SDS011;8484;50.904;9.192;2022-08-03T02:07:15;2.73;;;1.00;;
16731;SDS011;8484;50.904;9.192;2022-08-03T02:09:43;2.07;;;0.60;;
16731;SDS011;8484;50.904;9.192;2022-08-03T02:12:11;1.27;;;0.80;;
16731;SDS011;8484;50.904;9.192;2022-08-03T02:14:40;1.20;;;0.80;;
16731;SDS011;8484;50.904;9.192;2022-08-03T02:17:09;1.67;;;1.10;;
16731;SDS011;8484;50.904;9.192;2022-08-03T02:19:39;1.87;;;0.90;;
16731;SDS011;8484;50.904;9.192;2022-08-03T02:22:08;2.10;;;1.00;;
16731;SDS011;8484;50.904;9.192;2022-08-03T02:24:36;3.53;;;1.10;;
16731;SDS011;8484;50.904;9.192;2022-08-03T02:27:04;2.73;;;1.10;;
16731;SDS011;8484;50.904;9.192;2022-08-03T02:29:35;1.27;;;0.80;;
16731;SDS011;8484;50.904;9.192;2022-08-03T02:32:05;1.10;;;1.00;;
16731;SDS011;8484;50.904;9.192;2022-08-03T02:34:35;1.20;;;1.10;;
16731;SDS011;8484;50.904;9.192;2022-08-03T02:37:04;1.20;;;1.00;;
16731;SDS011;8484;50.904;9.192;2022-08-03T02:39:32;1.80;;;1.10;;
16731;SDS011;8484;50.904;9.192;2022-08-03T02:42:01;1.13;;;1.03;;
16731;SDS011;8484;50.904;9.192;2022-08-03T02:44:31;2.33;;;1.10;;
16731;SDS011;8484;50.904;9.192;2022-08-03T02:47:02;1.00;;;0.90;;
16731;SDS011;8484;50.904;9.192;2022-08-03T02:49:33;1.23;;;0.93;;
16731;SDS011;8484;50.904;9.192;2022-08-03T02:52:04;1.10;;;1.00;;
16731;SDS011;8484;50.904;9.192;2022-08-03T02:54:36;1.83;;;1.13;;
16731;SDS011;8484;50.904;9.192;2022-08-03T02:57:05;1.13;;;1.03;;
16731;SDS011;8484;50.904;9.192;2022-08-03T02:59:34;2.00;;;1.10;;
16731;SDS011;8484;50.904;9.192;2022-08-03T03:02:02;1.67;;;1.10;;
16731;SDS011;8484;50.904;9.192;2022-08-03T03:04:29;3.00;;;1.17;;
16731;SDS011;8484;50.904;9.192;2022-08-03T03:06:56;1.03;;;0.83;;
16731;SDS011;8484;50.904;9.192;2022-08-03T03:09:25;0.90;;;0.90;;
16731;SDS011;8484;50.904;9.192;2022-08-03T03:11:52;2.43;;;1.20;;
16731;SDS011;8484;50.904;9.192;2022-08-03T03:14:21;1.90;;;1.13;;
16731;SDS011;8484;50.904;9.192;2022-08-03T03:16:48;4.97;;;1.27;;
16731;SDS011;8484;50.904;9.192;2022-08-03T03:19:17;1.80;;;1.07;;
16731;SDS011;8484;50.904;9.192;2022-08-03T03:21:46;1.97;;;1.30;;
16731;SDS011;8484;50.904;9.192;2022-08-03T03:24:14;1.30;;;1.20;;
16731;SDS011;8484;50.904;9.192;2022-08-03T03:26:43;4.40;;;1.10;;
16731;SDS011;8484;50.904;9.192;2022-08-03T03:29:10;1.67;;;1.20;;
16731;SDS011;8484;50.904;9.192;2022-08-03T03:31:37;2.07;;;1.20;;
16731;SDS011;8484;50.904;9.192;2022-08-03T03:34:05;1.40;;;1.23;;
16731;SDS011;8484;50.904;9.192;2022-08-03T03:36:32;2.33;;;1.03;;
16731;SDS011;8484;50.904;9.192;2022-08-03T03:38:59;1.83;;;1.00;;
16731;SDS011;8484;50.904;9.192;2022-08-03T03:41:26;1.43;;;1.10;;
16731;SDS011;8484;50.904;9.192;2022-08-03T03:43:54;2.93;;;1.00;;
16731;SDS011;8484;50.904;9.192;2022-08-03T03:46:21;1.20;;;1.10;;
16731;SDS011;8484;50.904;9.192;2022-08-03T03:48:48;1.27;;;1.10;;
16731;SDS011;8484;50.904;9.192;2022-08-03T03:51:15;2.33;;;1.37;;
16731;SDS011;8484;50.904;9.192;2022-08-03T03:53:53;1.40;;;1.30;;
16731;SDS011;8484;50.904;9.192;2022-08-03T03:56:21;1.20;;;1.10;;
16731;SDS011;8484;50.904;9.192;2022-08-03T03:58:47;1.30;;;1.20;;
16731;SDS011;8484;50.904;9.192;2022-08-03T04:01:16;2.17;;;1.20;;
16731;SDS011;8484;50.904;9.192;2022-08-03T04:03:43;2.10;;;1.07;;
16731;SDS011;8484;50.904;9.192;2022-08-03T04:06:10;2.10;;;1.10;;
16731;SDS011;8484;50.904;9.192;2022-08-03T04:08:55;2.70;;;1.37;;
16731;SDS011;8484;50.904;9.192;2022-08-03T04:11:39;1.33;;;1.20;;
16731;SDS011;8484;50.904;9.192;2022-08-03T04:14:09;1.70;;;1.20;;
16731;SDS011;8484;50.904;9.192;2022-08-03T04:16:41;2.23;;;1.20;;
16731;SDS011;8484;50.904;9.192;2022-08-03T04:19:13;1.57;;;1.13;;
16731;SDS011;8484;50.904;9.192;2022-08-03T04:21:43;2.37;;;1.50;;
16731;SDS011;8484;50.904;9.192;2022-08-03T04:24:14;3.50;;;1.10;;
16731;SDS011;8484;50.904;9.192;2022-08-03T04:26:42;2.67;;;1.27;;
16731;SDS011;8484;50.904;9.192;2022-08-03T04:29:11;1.70;;;1.40;;
16731;SDS011;8484;50.904;9.192;2022-08-03T04:31:40;1.63;;;1.30;;
16731;SDS011;8484;50.904;9.192;2022-08-03T04:34:08;1.50;;;1.30;;
16731;SDS011;8484;50.904;9.192;2022-08-03T04:36:36;3.33;;;1.20;;
16731;SDS011;8484;50.904;9.192;2022-08-03T04:39:09;3.83;;;1.20;;
16731;SDS011;8484;50.904;9.192;2022-08-03T04:41:40;1.20;;;1.10;;
16731;SDS011;8484;50.904;9.192;2022-08-03T04:44:08;1.43;;;1.33;;
16731;SDS011;8484;50.904;9.192;2022-08-03T04:46:37;2.33;;;1.40;;
16731;SDS011;8484;50.904;9.192;2022-08-03T04:49:07;1.47;;;1.37;;
16731;SDS011;8484;50.904;9.192;2022-08-03T04:51:35;2.40;;;1.30;;
16731;SDS011;8484;50.904;9.192;2022-08-03T04:54:04;3.63;;;1.30;;
16731;SDS011;8484;50.904;9.192;2022-08-03T04:56:32;1.83;;;1.43;;
16731;SDS011;8484;50.904;9.192;2022-08-03T04:58:59;2.17;;;1.30;;
16731;SDS011;8484;50.904;9.192;2022-08-03T05:01:26;1.37;;;1.20;;
16731;SDS011;8484;50.904;9.192;2022-08-03T05:03:52;1.50;;;1.30;;
16731;SDS011;8484;50.904;9.192;2022-08-03T05:06:21;2.30;;;1.30;;
16731;SDS011;8484;50.904;9.192;2022-08-03T05:08:48;3.37;;;1.30;;
16731;SDS011;8484;50.904;9.192;2022-08-03T05:11:15;1.43;;;1.33;;
16731;SDS011;8484;50.904;9.192;2022-08-03T05:13:42;3.27;;;1.30;;
16731;SDS011;8484;50.904;9.192;2022-08-03T05:16:10;2.97;;;1.40;;
16731;SDS011;8484;50.904;9.192;2022-08-03T05:18:37;3.10;;;1.30;;
16731;SDS011;8484;50.904;9.192;2022-08-03T05:21:04;6.03;;;1.40;;
16731;SDS011;8484;50.904;9.192;2022-08-03T05:23:33;1.30;;;1.20;;
16731;SDS011;8484;50.904;9.192;2022-08-03T05:25:59;1.47;;;1.30;;
16731;SDS011;8484;50.904;9.192;2022-08-03T05:28:26;3.60;;;1.33;;
16731;SDS011;8484;50.904;9.192;2022-08-03T05:30:53;1.30;;;1.20;;
16731;SDS011;8484;50.904;9.192;2022-08-03T05:33:20;1.47;;;1.13;;
16731;SDS011;8484;50.904;9.192;2022-08-03T05:35:47;2.33;;;1.20;;
16731;SDS011;8484;50.904;9.192;2022-08-03T05:38:14;1.23;;;1.00;;
16731;SDS011;8484;50.904;9.192;2022-08-03T05:40:42;1.20;;;1.10;;
16731;SDS011;8484;50.904;9.192;2022-08-03T05:43:09;3.37;;;1.40;;
16731;SDS011;8484;50.904;9.192;2022-08-03T05:45:36;1.60;;;1.10;;
16731;SDS011;8484;50.904;9.192;2022-08-03T05:48:03;1.00;;;0.90;;
16731;SDS011;8484;50.904;9.192;2022-08-03T05:50:30;1.43;;;0.83;;
16731;SDS011;8484;50.904;9.192;2022-08-03T05:52:57;1.20;;;1.10;;
16731;SDS011;8484;50.904;9.192;2022-08-03T05:55:24;1.20;;;1.10;;
16731;SDS011;8484;50.904;9.192;2022-08-03T05:57:52;1.10;;;1.00;;
16731;SDS011;8484;50.904;9.192;2022-08-03T06:00:19;2.60;;;1.03;;
16731;SDS011;8484;50.904;9.192;2022-08-03T06:02:46;1.40;;;1.10;;
16731;SDS011;8484;50.904;9.192;2022-08-03T06:05:13;3.03;;;1.17;;
16731;SDS011;8484;50.904;9.192;2022-08-03T06:07:40;1.20;;;1.10;;
16731;SDS011;8484;50.904;9.192;2022-08-03T06:10:07;1.50;;;1.03;;
16731;SDS011;8484;50.904;9.192;2022-08-03T06:12:34;4.50;;;1.10;;
16731;SDS011;8484;50.904;9.192;2022-08-03T06:15:02;3.23;;;1.20;;
16731;SDS011;8484;50.904;9.192;2022-08-03T06:17:29;2.37;;;1.00;;
16731;SDS011;8484;50.904;9.192;2022-08-03T06:19:56;2.53;;;1.13;;
16731;SDS011;8484;50.904;9.192;2022-08-03T06:22:23;1.03;;;0.87;;
16731;SDS011;8484;50.904;9.192;2022-08-03T06:24:50;1.63;;;1.20;;
16731;SDS011;8484;50.904;9.192;2022-08-03T06:27:17;4.70;;;1.10;;
16731;SDS011;8484;50.904;9.192;2022-08-03T06:29:44;3.23;;;1.50;;
16731;SDS011;8484;50.904;9.192;2022-08-03T06:32:12;1.67;;;0.80;;
16731;SDS011;8484;50.904;9.192;2022-08-03T06:34:39;3.13;;;1.03;;
16731;SDS011;8484;50.904;9.192;2022-08-03T06:37:06;2.90;;;0.90;;
16731;SDS011;8484;50.904;9.192;2022-08-03T06:39:33;1.37;;;1.00;;
16731;SDS011;8484;50.904;9.192;2022-08-03T06:41:59;1.73;;;1.00;;
16731;SDS011;8484;50.904;9.192;2022-08-03T06:44:26;1.03;;;0.80;;
16731;SDS011;8484;50.904;9.192;2022-08-03T06:46:53;5.33;;;1.00;;
16731;SDS011;8484;50.904;9.192;2022-08-03T06:49:21;1.20;;;0.90;;
16731;SDS011;8484;50.904;9.192;2022-08-03T06:51:48;1.40;;;0.97;;
16731;SDS011;8484;50.904;9.192;2022-08-03T06:54:17;0.70;;;0.70;;
16731;SDS011;8484;50.904;9.192;2022-08-03T06:56:46;2.83;;;0.80;;
16731;SDS011;8484;50.904;9.192;2022-08-03T06:59:13;2.20;;;0.80;;
16731;SDS011;8484;50.904;9.192;2022-08-03T07:01:39;1.90;;;0.80;;
16731;SDS011;8484;50.904;9.192;2022-08-03T07:04:06;1.00;;;0.90;;
16731;SDS011;8484;50.904;9.192;2022-08-03T07:06:34;1.60;;;0.90;;
16731;SDS011;8484;50.904;9.192;2022-08-03T07:09:03;1.73;;;0.70;;
16731;SDS011;8484;50.904;9.192;2022-08-03T07:11:30;1.13;;;0.60;;
16731;SDS011;8484;50.904;9.192;2022-08-03T07:13:57;3.07;;;0.87;;
16731;SDS011;8484;50.904;9.192;2022-08-03T07:16:24;0.70;;;0.50;;
16731;SDS011;8484;50.904;9.192;2022-08-03T07:18:50;0.90;;;0.60;;
16731;SDS011;8484;50.904;9.192;2022-08-03T07:21:17;0.77;;;0.70;;
16731;SDS011;8484;50.904;9.192;2022-08-03T07:23:45;1.33;;;0.57;;
16731;SDS011;8484;50.904;9.192;2022-08-03T07:26:12;0.90;;;0.60;;
16731;SDS011;8484;50.904;9.192;2022-08-03T07:28:39;2.93;;;0.73;;
16731;SDS011;8484;50.904;9.192;2022-08-03T07:31:06;1.07;;;0.57;;
16731;SDS011;8484;50.904;9.192;2022-08-03T07:33:32;2.37;;;0.60;;
16731;SDS011;8484;50.904;9.192;2022-08-03T07:35:59;0.83;;;0.53;;
16731;SDS011;8484;50.904;9.192;2022-08-03T07:38:26;2.30;;;0.50;;
16731;SDS011;8484;50.904;9.192;2022-08-03T07:40:55;0.80;;;0.40;;
16731;SDS011;8484;50.904;9.192;2022-08-03T07:43:22;0.70;;;0.40;;
16731;SDS011;8484;50.904;9.192;2022-08-03T07:45:49;2.50;;;0.50;;
16731;SDS011;8484;50.904;9.192;2022-08-03T07:48:16;1.03;;;0.50;;
16731;SDS011;8484;50.904;9.192;2022-08-03T07:50:42;0.73;;;0.60;;
16731;SDS011;8484;50.904;9.192;2022-08-03T07:53:10;1.43;;;0.57;;
16731;SDS011;8484;50.904;9.192;2022-08-03T07:55:37;0.80;;;0.60;;
16731;SDS011;8484;50.904;9.192;2022-08-03T07:58:06;0.57;;;0.40;;
16731;SDS011;8484;50.904;9.192;2022-08-03T08:00:36;0.67;;;0.50;;
16731;SDS011;8484;50.904;9.192;2022-08-03T08:03:03;1.23;;;0.57;;
16731;SDS011;8484;50.904;9.192;2022-08-03T08:05:30;2.00;;;0.50;;
16731;SDS011;8484;50.904;9.192;2022-08-03T08:07:57;1.17;;;0.40;;
16731;SDS011;8484;50.904;9.192;2022-08-03T08:10:24;2.40;;;0.60;;
16731;SDS011;8484;50.904;9.192;2022-08-03T08:12:52;1.67;;;0.50;;
16731;SDS011;8484;50.904;9.192;2022-08-03T08:15:20;0.93;;;0.70;;
16731;SDS011;8484;50.904;9.192;2022-08-03T08:17:48;2.97;;;0.70;;
16731;SDS011;8484;50.904;9.192;2022-08-03T08:20:18;1.03;;;0.60;;
16731;SDS011;8484;50.904;9.192;2022-08-03T08:22:46;1.07;;;0.60;;
16731;SDS011;8484;50.904;9.192;2022-08-03T08:25:13;2.93;;;0.53;;
16731;SDS011;8484;50.904;9.192;2022-08-03T08:27:41;0.50;;;0.30;;
16731;SDS011;8484;50.904;9.192;2022-08-03T08:30:09;2.17;;;0.50;;
16731;SDS011;8484;50.904;9.192;2022-08-03T08:32:38;1.70;;;0.40;;
16731;SDS011;8484;50.904;9.192;2022-08-03T08:35:06;0.40;;;0.40;;
16731;SDS011;8484;50.904;9.192;2022-08-03T08:37:33;0.83;;;0.30;;
16731;SDS011;8484;50.904;9.192;2022-08-03T08:40:00;0.33;;;0.33;;
16731;SDS011;8484;50.904;9.192;2022-08-03T08:42:27;1.73;;;0.40;;
16731;SDS011;8484;50.904;9.192;2022-08-03T08:44:54;0.90;;;0.40;;
16731;SDS011;8484;50.904;9.192;2022-08-03T08:47:21;0.40;;;0.30;;
16731;SDS011;8484;50.904;9.192;2022-08-03T08:49:52;2.17;;;0.60;;
16731;SDS011;8484;50.904;9.192;2022-08-03T08:52:20;8.13;;;0.50;;
16731;SDS011;8484;50.904;9.192;2022-08-03T08:54:51;0.50;;;0.30;;
16731;SDS011;8484;50.904;9.192;2022-08-03T08:57:22;0.87;;;0.53;;
16731;SDS011;8484;50.904;9.192;2022-08-03T08:59:54;0.37;;;0.33;;
16731;SDS011;8484;50.904;9.192;2022-08-03T09:02:22;1.60;;;0.47;;
16731;SDS011;8484;50.904;9.192;2022-08-03T09:04:49;0.83;;;0.53;;
16731;SDS011;8484;50.904;9.192;2022-08-03T09:07:17;1.60;;;0.40;;
16731;SDS011;8484;50.904;9.192;2022-08-03T09:09:44;0.70;;;0.30;;
16731;SDS011;8484;50.904;9.192;2022-08-03T09:12:11;0.50;;;0.40;;
16731;SDS011;8484;50.904;9.192;2022-08-03T09:14:38;2.00;;;0.43;;
16731;SDS011;8484;50.904;9.192;2022-08-03T09:17:05;1.90;;;0.50;;
16731;SDS011;8484;50.904;9.192;2022-08-03T09:19:33;1.57;;;0.50;;
16731;SDS011;8484;50.904;9.192;2022-08-03T09:22:07;1.10;;;0.40;;
16731;SDS011;8484;50.904;9.192;2022-08-03T09:24:37;1.50;;;0.40;;
16731;SDS011;8484;50.904;9.192;2022-08-03T09:27:19;3.03;;;0.50;;
16731;SDS011;8484;50.904;9.192;2022-08-03T09:29:46;0.43;;;0.40;;
16731;SDS011;8484;50.904;9.192;2022-08-03T09:32:13;4.30;;;0.50;;
16731;SDS011;8484;50.904;9.192;2022-08-03T09:34:40;0.40;;;0.40;;
16731;SDS011;8484;50.904;9.192;2022-08-03T09:37:11;2.97;;;0.60;;
16731;SDS011;8484;50.904;9.192;2022-08-03T09:39:41;1.23;;;0.40;;
16731;SDS011;8484;50.904;9.192;2022-08-03T09:42:08;0.40;;;0.40;;
16731;SDS011;8484;50.904;9.192;2022-08-03T09:44:36;0.70;;;0.40;;
16731;SDS011;8484;50.904;9.192;2022-08-03T09:47:06;0.70;;;0.33;;
16731;SDS011;8484;50.904;9.192;2022-08-03T09:49:35;0.63;;;0.40;;
16731;SDS011;8484;50.904;9.192;2022-08-03T09:52:10;4.33;;;0.50;;
16731;SDS011;8484;50.904;9.192;2022-08-03T09:54:40;1.13;;;0.60;;
16731;SDS011;8484;50.904;9.192;2022-08-03T09:57:10;1.70;;;0.50;;
16731;SDS011;8484;50.904;9.192;2022-08-03T09:59:46;3.60;;;0.50;;
16731;SDS011;8484;50.904;9.192;2022-08-03T10:02:19;2.03;;;0.50;;
16731;SDS011;8484;50.904;9.192;2022-08-03T10:04:48;2.10;;;0.50;;
16731;SDS011;8484;50.904;9.192;2022-08-03T10:07:17;0.83;;;0.43;;
16731;SDS011;8484;50.904;9.192;2022-08-03T10:09:53;0.50;;;0.50;;
16731;SDS011;8484;50.904;9.192;2022-08-03T10:12:21;1.87;;;0.50;;
16731;SDS011;8484;50.904;9.192;2022-08-03T10:14:48;1.83;;;0.50;;
16731;SDS011;8484;50.904;9.192;2022-08-03T10:17:16;0.93;;;0.40;;
16731;SDS011;8484;50.904;9.192;2022-08-03T10:19:43;0.93;;;0.50;;
16731;SDS011;8484;50.904;9.192;2022-08-03T10:22:11;0.57;;;0.40;;
16731;SDS011;8484;50.904;9.192;2022-08-03T10:24:40;1.20;;;0.50;;
16731;SDS011;8484;50.904;9.192;2022-08-03T10:27:16;0.70;;;0.40;;
16731;SDS011;8484;50.904;9.192;2022-08-03T10:29:46;1.43;;;0.40;;
16731;SDS011;8484;50.904;9.192;2022-08-03T10:32:18;1.33;;;0.43;;
16731;SDS011;8484;50.904;9.192;2022-08-03T10:34:51;1.33;;;0.30;;
16731;SDS011;8484;50.904;9.192;2022-08-03T10:37:23;0.87;;;0.43;;
16731;SDS011;8484;50.904;9.192;2022-08-03T10:39:54;1.27;;;0.37;;
16731;SDS011;8484;50.904;9.192;2022-08-03T10:42:27;1.45;;;0.30;;
16731;SDS011;8484;50.904;9.192;2022-08-03T10:44:59;1.27;;;0.30;;
16731;SDS011;8484;50.904;9.192;2022-08-03T10:47:31;0.85;;;0.40;;
16731;SDS011;8484;50.904;9.192;2022-08-03T10:50:00;1.02;;;0.40;;
16731;SDS011;8484;50.904;9.192;2022-08-03T10:52:28;0.73;;;0.30;;
16731;SDS011;8484;50.904;9.192;2022-08-03T10:54:54;1.13;;;0.50;;
16731;SDS011;8484;50.904;9.192;2022-08-03T10:57:44;0.30;;;0.30;;
16731;SDS011;8484;50.904;9.192;2022-08-03T11:00:17;2.17;;;0.50;;
16731;SDS011;8484;50.904;9.192;2022-08-03T11:03:00;2.17;;;0.40;;
16731;SDS011;8484;50.904;9.192;2022-08-03T11:05:30;0.43;;;0.40;;
16731;SDS011;8484;50.904;9.192;2022-08-03T11:11:00;2.78;;;0.40;;
16731;SDS011;8484;50.904;9.192;2022-08-03T11:13:30;0.50;;;0.40;;
16731;SDS011;8484;50.904;9.192;2022-08-03T11:15:59;4.63;;;0.43;;
16731;SDS011;8484;50.904;9.192;2022-08-03T11:18:29;0.70;;;0.30;;
16731;SDS011;8484;50.904;9.192;2022-08-03T11:20:56;2.05;;;0.30;;
16731;SDS011;8484;50.904;9.192;2022-08-03T11:23:40;0.82;;;0.38;;
16731;SDS011;8484;50.904;9.192;2022-08-03T11:26:15;1.13;;;0.40;;
16731;SDS011;8484;50.904;9.192;2022-08-03T11:28:45;1.05;;;0.40;;
16731;SDS011;8484;50.904;9.192;2022-08-03T11:34:15;1.02;;;0.45;;
16731;SDS011;8484;50.904;9.192;2022-08-03T11:39:46;0.30;;;0.30;;
16731;SDS011;8484;50.904;9.192;2022-08-03T11:45:05;0.70;;;0.40;;
16731;SDS011;8484;50.904;9.192;2022-08-03T11:47:35;1.90;;;0.30;;
16731;SDS011;8484;50.904;9.192;2022-08-03T11:50:03;1.58;;;0.40;;
16731;SDS011;8484;50.904;9.192;2022-08-03T11:52:33;1.48;;;0.35;;
16731;SDS011;8484;50.904;9.192;2022-08-03T11:55:01;1.63;;;0.43;;
16731;SDS011;8484;50.904;9.192;2022-08-03T11:57:34;0.87;;;0.40;;
16731;SDS011;8484;50.904;9.192;2022-08-03T12:00:01;1.25;;;0.40;;
16731;SDS011;8484;50.904;9.192;2022-08-03T12:02:30;0.40;;;0.40;;
16731;SDS011;8484;50.904;9.192;2022-08-03T12:04:57;2.33;;;0.40;;
16731;SDS011;8484;50.904;9.192;2022-08-03T12:07:25;1.17;;;0.50;;
16731;SDS011;8484;50.904;9.192;2022-08-03T12:12:36;0.40;;;0.40;;
16731;SDS011;8484;50.904;9.192;2022-08-03T12:15:04;0.70;;;0.40;;
16731;SDS011;8484;50.904;9.192;2022-08-03T12:17:34;0.87;;;0.30;;
16731;SDS011;8484;50.904;9.192;2022-08-03T12:20:02;2.53;;;0.30;;
16731;SDS011;8484;50.904;9.192;2022-08-03T12:22:31;0.73;;;0.40;;
16731;SDS011;8484;50.904;9.192;2022-08-03T12:24:58;0.30;;;0.30;;
16731;SDS011;8484;50.904;9.192;2022-08-03T12:27:25;1.42;;;0.40;;
16731;SDS011;8484;50.904;9.192;2022-08-03T12:29:54;1.92;;;0.30;;
16731;SDS011;8484;50.904;9.192;2022-08-03T12:32:23;1.80;;;0.30;;
16731;SDS011;8484;50.904;9.192;2022-08-03T12:34:52;1.45;;;0.35;;
16731;SDS011;8484;50.904;9.192;2022-08-03T12:37:23;0.77;;;0.40;;
16731;SDS011;8484;50.904;9.192;2022-08-03T12:39:50;1.13;;;0.30;;
16731;SDS011;8484;50.904;9.192;2022-08-03T12:42:18;1.20;;;0.30;;
16731;SDS011;8484;50.904;9.192;2022-08-03T12:44:45;0.50;;;0.40;;
16731;SDS011;8484;50.904;9.192;2022-08-03T12:47:13;1.80;;;0.40;;
16731;SDS011;8484;50.904;9.192;2022-08-03T12:49:43;0.60;;;0.43;;
16731;SDS011;8484;50.904;9.192;2022-08-03T12:52:12;0.40;;;0.30;;
16731;SDS011;8484;50.904;9.192;2022-08-03T12:54:39;0.88;;;0.47;;
16731;SDS011;8484;50.904;9.192;2022-08-03T12:57:07;0.88;;;0.30;;
16731;SDS011;8484;50.904;9.192;2022-08-03T12:59:36;0.50;;;0.20;;
16731;SDS011;8484;50.904;9.192;2022-08-03T13:02:12;1.02;;;0.40;;
16731;SDS011;8484;50.904;9.192;2022-08-03T13:04:40;0.40;;;0.40;;
16731;SDS011;8484;50.904;9.192;2022-08-03T13:07:08;0.28;;;0.10;;
16731;SDS011;8484;50.904;9.192;2022-08-03T13:09:41;1.63;;;0.25;;
16731;SDS011;8484;50.904;9.192;2022-08-03T13:12:10;0.40;;;0.40;;
16731;SDS011;8484;50.904;9.192;2022-08-03T13:14:38;1.13;;;0.50;;
16731;SDS011;8484;50.904;9.192;2022-08-03T13:17:05;0.30;;;0.30;;
16731;SDS011;8484;50.904;9.192;2022-08-03T13:19:32;0.67;;;0.30;;
16731;SDS011;8484;50.904;9.192;2022-08-03T13:22:00;0.20;;;0.20;;
16731;SDS011;8484;50.904;9.192;2022-08-03T13:24:35;0.30;;;0.20;;
16731;SDS011;8484;50.904;9.192;2022-08-03T13:27:03;0.47;;;0.43;;
16731;SDS011;8484;50.904;9.192;2022-08-03T13:29:31;0.70;;;0.40;;
16731;SDS011;8484;50.904;9.192;2022-08-03T13:31:58;1.90;;;0.40;;
16731;SDS011;8484;50.904;9.192;2022-08-03T13:34:26;2.20;;;0.40;;
16731;SDS011;8484;50.904;9.192;2022-08-03T13:36:53;2.10;;;0.50;;
16731;SDS011;8484;50.904;9.192;2022-08-03T13:39:19;2.17;;;0.40;;
16731;SDS011;8484;50.904;9.192;2022-08-03T13:41:46;0.67;;;0.40;;
16731;SDS011;8484;50.904;9.192;2022-08-03T13:44:15;0.87;;;0.57;;
16731;SDS011;8484;50.904;9.192;2022-08-03T13:46:43;0.50;;;0.40;;
16731;SDS011;8484;50.904;9.192;2022-08-03T13:49:09;0.80;;;0.40;;
16731;SDS011;8484;50.904;9.192;2022-08-03T13:51:36;1.30;;;0.40;;
16731;SDS011;8484;50.904;9.192;2022-08-03T13:54:04;1.53;;;0.50;;
16731;SDS011;8484;50.904;9.192;2022-08-03T13:56:31;1.47;;;0.50;;
16731;SDS011;8484;50.904;9.192;2022-08-03T13:58:58;3.53;;;0.57;;
16731;SDS011;8484;50.904;9.192;2022-08-03T14:01:26;1.90;;;0.40;;
16731;SDS011;8484;50.904;9.192;2022-08-03T14:03:53;0.63;;;0.30;;
16731;SDS011;8484;50.904;9.192;2022-08-03T14:06:20;2.03;;;0.40;;
16731;SDS011;8484;50.904;9.192;2022-08-03T14:08:48;1.80;;;0.30;;
16731;SDS011;8484;50.904;9.192;2022-08-03T14:11:15;1.37;;;0.40;;
16731;SDS011;8484;50.904;9.192;2022-08-03T14:13:43;2.13;;;0.37;;
16731;SDS011;8484;50.904;9.192;2022-08-03T14:16:09;0.30;;;0.30;;
16731;SDS011;8484;50.904;9.192;2022-08-03T14:18:37;1.58;;;0.38;;
16731;SDS011;8484;50.904;9.192;2022-08-03T14:21:06;0.57;;;0.43;;
16731;SDS011;8484;50.904;9.192;2022-08-03T14:23:33;2.17;;;0.50;;
16731;SDS011;8484;50.904;9.192;2022-08-03T14:26:01;1.23;;;0.47;;
16731;SDS011;8484;50.904;9.192;2022-08-03T14:28:28;0.80;;;0.40;;
16731;SDS011;8484;50.904;9.192;2022-08-03T14:30:55;0.60;;;0.40;;
16731;SDS011;8484;50.904;9.192;2022-08-03T14:33:22;1.23;;;0.40;;
16731;SDS011;8484;50.904;9.192;2022-08-03T14:35:51;0.90;;;0.40;;
16731;SDS011;8484;50.904;9.192;2022-08-03T14:38:18;0.77;;;0.43;;
16731;SDS011;8484;50.904;9.192;2022-08-03T14:40:45;2.43;;;0.60;;
16731;SDS011;8484;50.904;9.192;2022-08-03T14:43:13;2.10;;;0.30;;
16731;SDS011;8484;50.904;9.192;2022-08-03T14:45:41;1.23;;;0.50;;
16731;SDS011;8484;50.904;9.192;2022-08-03T14:48:08;1.63;;;0.30;;
16731;SDS011;8484;50.904;9.192;2022-08-03T14:50:36;1.83;;;0.70;;
16731;SDS011;8484;50.904;9.192;2022-08-03T14:53:04;1.20;;;0.40;;
16731;SDS011;8484;50.904;9.192;2022-08-03T14:55:31;1.47;;;0.40;;
16731;SDS011;8484;50.904;9.192;2022-08-03T14:57:58;2.37;;;0.37;;
16731;SDS011;8484;50.904;9.192;2022-08-03T15:00:29;2.03;;;0.47;;
16731;SDS011;8484;50.904;9.192;2022-08-03T15:02:56;0.40;;;0.30;;
16731;SDS011;8484;50.904;9.192;2022-08-03T15:05:23;3.33;;;0.40;;
16731;SDS011;8484;50.904;9.192;2022-08-03T15:07:50;0.87;;;0.43;;
16731;SDS011;8484;50.904;9.192;2022-08-03T15:10:18;0.43;;;0.43;;
16731;SDS011;8484;50.904;9.192;2022-08-03T15:12:45;0.43;;;0.33;;
16731;SDS011;8484;50.904;9.192;2022-08-03T15:15:12;1.20;;;0.47;;
16731;SDS011;8484;50.904;9.192;2022-08-03T15:17:39;1.43;;;0.40;;
16731;SDS011;8484;50.904;9.192;2022-08-03T15:20:06;0.40;;;0.37;;
16731;SDS011;8484;50.904;9.192;2022-08-03T15:22:33;4.23;;;0.40;;
16731;SDS011;8484;50.904;9.192;2022-08-03T15:25:04;0.40;;;0.33;;